sensor_id;sensor_type;location;lat;lon;timestamp;P1;durP1;ratioP1;P2;durP2;ratioP2
67442;SDS011;54311;51.726;5.154;2022-11-04T00:01:18;3.38;;;3.17;;
67442;SDS011;54311;51.726;5.154;2022-11-04T00:03:43;3.22;;;3.00;;
67442;SDS011;54311;51.726;5.154;2022-11-04T00:06:09;5.00;;;3.00;;
67442;SDS011;54311;51.726;5.154;2022-11-04T00:08:34;2.92;;;2.80;;
67442;SDS011;54311;51.726;5.154;2022-11-04T00:11:00;3.10;;;2.90;;
67442;SDS011;54311;51.726;5.154;2022-11-04T00:13:45;3.17;;;2.85;;
67442;SDS011;54311;51.726;5.154;2022-11-04T00:16:11;3.38;;;3.03;;
67442;SDS011;54311;51.726;5.154;2022-11-04T00:18:55;4.07;;;3.08;;
67442;SDS011;54311;51.726;5.154;2022-11-04T00:21:21;4.30;;;2.55;;
67442;SDS011;54311;51.726;5.154;2022-11-04T00:24:05;3.22;;;2.95;;
67442;SDS011;54311;51.726;5.154;2022-11-04T00:26:49;3.10;;;3.00;;
67442;SDS011;54311;51.726;5.154;2022-11-04T00:29:33;2.78;;;2.67;;
67442;SDS011;54311;51.726;5.154;2022-11-04T00:31:58;3.10;;;2.90;;
67442;SDS011;54311;51.726;5.154;2022-11-04T00:34:42;3.00;;;2.80;;
67442;SDS011;54311;51.726;5.154;2022-11-04T00:37:08;4.20;;;3.80;;
67442;SDS011;54311;51.726;5.154;2022-11-04T00:39:33;4.13;;;3.83;;
67442;SDS011;54311;51.726;5.154;2022-11-04T00:41:58;4.70;;;4.30;;
67442;SDS011;54311;51.726;5.154;2022-11-04T00:44:24;4.85;;;4.45;;
67442;SDS011;54311;51.726;5.154;2022-11-04T00:46:49;4.63;;;4.43;;
67442;SDS011;54311;51.726;5.154;2022-11-04T00:49:14;6.68;;;5.28;;
67442;SDS011;54311;51.726;5.154;2022-11-04T00:51:40;6.28;;;5.88;;
67442;SDS011;54311;51.726;5.154;2022-11-04T00:54:05;8.48;;;7.88;;
67442;SDS011;54311;51.726;5.154;2022-11-04T00:56:31;9.00;;;8.30;;
67442;SDS011;54311;51.726;5.154;2022-11-04T00:58:59;10.07;;;9.10;;
67442;SDS011;54311;51.726;5.154;2022-11-04T01:01:25;10.52;;;9.15;;
67442;SDS011;54311;51.726;5.154;2022-11-04T01:03:51;9.32;;;8.43;;
67442;SDS011;54311;51.726;5.154;2022-11-04T01:06:17;10.23;;;9.32;;
67442;SDS011;54311;51.726;5.154;2022-11-04T01:08:44;11.60;;;10.40;;
67442;SDS011;54311;51.726;5.154;2022-11-04T01:11:10;12.90;;;11.70;;
67442;SDS011;54311;51.726;5.154;2022-11-04T01:13:36;18.33;;;16.55;;
67442;SDS011;54311;51.726;5.154;2022-11-04T01:16:03;16.88;;;15.15;;
67442;SDS011;54311;51.726;5.154;2022-11-04T01:18:30;19.92;;;17.88;;
67442;SDS011;54311;51.726;5.154;2022-11-04T01:20:59;22.05;;;19.83;;
67442;SDS011;54311;51.726;5.154;2022-11-04T01:23:24;33.92;;;23.98;;
67442;SDS011;54311;51.726;5.154;2022-11-04T01:25:50;25.33;;;22.63;;
67442;SDS011;54311;51.726;5.154;2022-11-04T01:28:15;28.90;;;25.33;;
67442;SDS011;54311;51.726;5.154;2022-11-04T01:30:40;35.80;;;25.98;;
67442;SDS011;54311;51.726;5.154;2022-11-04T01:33:06;35.00;;;26.98;;
67442;SDS011;54311;51.726;5.154;2022-11-04T01:35:31;35.35;;;31.55;;
67442;SDS011;54311;51.726;5.154;2022-11-04T01:37:57;32.97;;;28.33;;
67442;SDS011;54311;51.726;5.154;2022-11-04T01:40:23;33.85;;;30.33;;
67442;SDS011;54311;51.726;5.154;2022-11-04T01:42:48;33.10;;;29.38;;
67442;SDS011;54311;51.726;5.154;2022-11-04T01:45:14;33.42;;;29.83;;
67442;SDS011;54311;51.726;5.154;2022-11-04T01:47:41;33.30;;;29.70;;
67442;SDS011;54311;51.726;5.154;2022-11-04T01:50:16;30.88;;;26.63;;
67442;SDS011;54311;51.726;5.154;2022-11-04T01:52:59;30.52;;;26.58;;
67442;SDS011;54311;51.726;5.154;2022-11-04T01:55:30;37.50;;;26.40;;
67442;SDS011;54311;51.726;5.154;2022-11-04T01:57:59;29.30;;;25.70;;
67442;SDS011;54311;51.726;5.154;2022-11-04T02:00:26;32.50;;;26.10;;
67442;SDS011;54311;51.726;5.154;2022-11-04T02:02:59;29.50;;;26.45;;
67442;SDS011;54311;51.726;5.154;2022-11-04T02:05:28;29.17;;;25.33;;
67442;SDS011;54311;51.726;5.154;2022-11-04T02:07:55;28.45;;;25.52;;
67442;SDS011;54311;51.726;5.154;2022-11-04T02:10:22;26.48;;;22.75;;
67442;SDS011;54311;51.726;5.154;2022-11-04T02:12:50;23.65;;;21.17;;
67442;SDS011;54311;51.726;5.154;2022-11-04T02:15:52;25.17;;;20.48;;
67442;SDS011;54311;51.726;5.154;2022-11-04T02:21:39;22.17;;;17.02;;
67442;SDS011;54311;51.726;5.154;2022-11-04T02:27:15;19.90;;;15.18;;
67442;SDS011;54311;51.726;5.154;2022-11-04T02:40:53;15.00;;;13.10;;
67442;SDS011;54311;51.726;5.154;2022-11-04T02:43:40;12.68;;;11.52;;
67442;SDS011;54311;51.726;5.154;2022-11-04T02:49:07;17.75;;;10.95;;
67442;SDS011;54311;51.726;5.154;2022-11-04T02:51:38;11.20;;;9.45;;
67442;SDS011;54311;51.726;5.154;2022-11-04T02:54:08;11.57;;;10.45;;
67442;SDS011;54311;51.726;5.154;2022-11-04T02:56:40;11.63;;;10.43;;
67442;SDS011;54311;51.726;5.154;2022-11-04T03:02:10;17.02;;;9.98;;
67442;SDS011;54311;51.726;5.154;2022-11-04T03:04:40;13.38;;;9.80;;
67442;SDS011;54311;51.726;5.154;2022-11-04T03:07:09;13.38;;;10.00;;
67442;SDS011;54311;51.726;5.154;2022-11-04T03:09:36;10.45;;;9.18;;
67442;SDS011;54311;51.726;5.154;2022-11-04T03:12:04;13.40;;;9.88;;
67442;SDS011;54311;51.726;5.154;2022-11-04T03:14:40;11.60;;;9.65;;
67442;SDS011;54311;51.726;5.154;2022-11-04T03:17:13;12.13;;;8.60;;
67442;SDS011;54311;51.726;5.154;2022-11-04T03:19:52;14.05;;;9.48;;
67442;SDS011;54311;51.726;5.154;2022-11-04T03:22:19;10.65;;;8.77;;
67442;SDS011;54311;51.726;5.154;2022-11-04T03:24:46;13.93;;;8.60;;
67442;SDS011;54311;51.726;5.154;2022-11-04T03:30:17;10.73;;;7.63;;
67442;SDS011;54311;51.726;5.154;2022-11-04T03:35:12;9.40;;;6.70;;
67442;SDS011;54311;51.726;5.154;2022-11-04T03:37:38;11.10;;;6.43;;
67442;SDS011;54311;51.726;5.154;2022-11-04T03:40:04;8.68;;;6.22;;
67442;SDS011;54311;51.726;5.154;2022-11-04T03:42:30;10.38;;;6.15;;
67442;SDS011;54311;51.726;5.154;2022-11-04T03:44:56;12.43;;;6.57;;
67442;SDS011;54311;51.726;5.154;2022-11-04T03:47:23;11.75;;;7.00;;
67442;SDS011;54311;51.726;5.154;2022-11-04T03:49:50;8.73;;;5.72;;
67442;SDS011;54311;51.726;5.154;2022-11-04T03:52:17;9.70;;;6.05;;
67442;SDS011;54311;51.726;5.154;2022-11-04T03:54:43;8.05;;;6.13;;
67442;SDS011;54311;51.726;5.154;2022-11-04T04:02:30;8.57;;;5.82;;
67442;SDS011;54311;51.726;5.154;2022-11-04T04:05:15;6.97;;;5.93;;
67442;SDS011;54311;51.726;5.154;2022-11-04T04:10:47;6.95;;;6.03;;
67442;SDS011;54311;51.726;5.154;2022-11-04T04:13:36;12.45;;;5.85;;
67442;SDS011;54311;51.726;5.154;2022-11-04T04:19:13;8.85;;;5.47;;
67442;SDS011;54311;51.726;5.154;2022-11-04T04:21:41;6.40;;;5.88;;
67442;SDS011;54311;51.726;5.154;2022-11-04T04:24:09;8.50;;;6.60;;
67442;SDS011;54311;51.726;5.154;2022-11-04T04:26:55;6.97;;;6.28;;
67442;SDS011;54311;51.726;5.154;2022-11-04T04:29:40;8.63;;;6.65;;
67442;SDS011;54311;51.726;5.154;2022-11-04T04:32:07;8.07;;;6.35;;
67442;SDS011;54311;51.726;5.154;2022-11-04T04:34:33;11.13;;;6.40;;
67442;SDS011;54311;51.726;5.154;2022-11-04T04:37:08;7.63;;;5.55;;
67442;SDS011;54311;51.726;5.154;2022-11-04T04:39:45;7.80;;;6.20;;
67442;SDS011;54311;51.726;5.154;2022-11-04T04:42:34;6.10;;;5.47;;
67442;SDS011;54311;51.726;5.154;2022-11-04T04:45:21;6.20;;;5.70;;
67442;SDS011;54311;51.726;5.154;2022-11-04T04:47:48;12.02;;;6.20;;
67442;SDS011;54311;51.726;5.154;2022-11-04T04:50:14;9.80;;;6.05;;
67442;SDS011;54311;51.726;5.154;2022-11-04T04:52:41;9.48;;;5.78;;
67442;SDS011;54311;51.726;5.154;2022-11-04T04:55:09;11.38;;;6.25;;
67442;SDS011;54311;51.726;5.154;2022-11-04T04:57:35;6.97;;;5.60;;
67442;SDS011;54311;51.726;5.154;2022-11-04T05:00:01;10.63;;;5.60;;
67442;SDS011;54311;51.726;5.154;2022-11-04T05:02:28;5.65;;;5.13;;
67442;SDS011;54311;51.726;5.154;2022-11-04T05:04:53;7.63;;;5.72;;
67442;SDS011;54311;51.726;5.154;2022-11-04T05:07:20;7.43;;;5.20;;
67442;SDS011;54311;51.726;5.154;2022-11-04T05:09:45;10.30;;;5.40;;
67442;SDS011;54311;51.726;5.154;2022-11-04T05:12:11;10.23;;;5.53;;
67442;SDS011;54311;51.726;5.154;2022-11-04T05:14:36;9.48;;;5.35;;
67442;SDS011;54311;51.726;5.154;2022-11-04T05:17:01;7.53;;;5.57;;
67442;SDS011;54311;51.726;5.154;2022-11-04T05:19:27;7.28;;;5.47;;
67442;SDS011;54311;51.726;5.154;2022-11-04T05:21:52;10.45;;;4.97;;
67442;SDS011;54311;51.726;5.154;2022-11-04T05:24:18;11.55;;;5.18;;
67442;SDS011;54311;51.726;5.154;2022-11-04T05:26:43;9.18;;;5.10;;
67442;SDS011;54311;51.726;5.154;2022-11-04T05:29:08;9.35;;;5.18;;
67442;SDS011;54311;51.726;5.154;2022-11-04T05:31:34;10.38;;;5.72;;
67442;SDS011;54311;51.726;5.154;2022-11-04T05:33:59;6.07;;;4.97;;
67442;SDS011;54311;51.726;5.154;2022-11-04T05:36:25;8.23;;;5.28;;
67442;SDS011;54311;51.726;5.154;2022-11-04T05:38:51;9.25;;;5.13;;
67442;SDS011;54311;51.726;5.154;2022-11-04T05:41:19;7.03;;;5.20;;
67442;SDS011;54311;51.726;5.154;2022-11-04T05:43:54;6.82;;;5.45;;
67442;SDS011;54311;51.726;5.154;2022-11-04T05:46:20;5.55;;;4.88;;
67442;SDS011;54311;51.726;5.154;2022-11-04T05:48:46;7.20;;;5.03;;
67442;SDS011;54311;51.726;5.154;2022-11-04T05:51:12;11.05;;;5.38;;
67442;SDS011;54311;51.726;5.154;2022-11-04T05:53:39;9.23;;;5.18;;
67442;SDS011;54311;51.726;5.154;2022-11-04T05:56:04;7.47;;;5.50;;
67442;SDS011;54311;51.726;5.154;2022-11-04T05:58:30;6.88;;;5.15;;
67442;SDS011;54311;51.726;5.154;2022-11-04T06:01:09;8.75;;;5.25;;
67442;SDS011;54311;51.726;5.154;2022-11-04T06:03:55;11.35;;;5.43;;
67442;SDS011;54311;51.726;5.154;2022-11-04T06:06:22;12.48;;;5.80;;
67442;SDS011;54311;51.726;5.154;2022-11-04T06:08:49;5.38;;;4.97;;
67442;SDS011;54311;51.726;5.154;2022-11-04T06:11:14;7.57;;;5.13;;
67442;SDS011;54311;51.726;5.154;2022-11-04T06:13:40;5.53;;;5.05;;
67442;SDS011;54311;51.726;5.154;2022-11-04T06:16:05;8.77;;;5.65;;
67442;SDS011;54311;51.726;5.154;2022-11-04T06:18:31;5.75;;;5.28;;
67442;SDS011;54311;51.726;5.154;2022-11-04T06:23:55;7.00;;;5.20;;
67442;SDS011;54311;51.726;5.154;2022-11-04T06:26:21;10.20;;;6.10;;
67442;SDS011;54311;51.726;5.154;2022-11-04T06:28:47;7.28;;;5.18;;
67442;SDS011;54311;51.726;5.154;2022-11-04T06:31:13;8.27;;;5.60;;
67442;SDS011;54311;51.726;5.154;2022-11-04T06:33:39;7.35;;;5.40;;
67442;SDS011;54311;51.726;5.154;2022-11-04T06:36:06;9.30;;;5.53;;
67442;SDS011;54311;51.726;5.154;2022-11-04T06:38:33;12.23;;;6.30;;
67442;SDS011;54311;51.726;5.154;2022-11-04T06:41:00;6.03;;;5.43;;
67442;SDS011;54311;51.726;5.154;2022-11-04T06:43:25;6.13;;;5.47;;
67442;SDS011;54311;51.726;5.154;2022-11-04T06:45:54;6.18;;;5.68;;
67442;SDS011;54311;51.726;5.154;2022-11-04T06:48:21;6.63;;;5.50;;
67442;SDS011;54311;51.726;5.154;2022-11-04T06:50:46;8.45;;;5.75;;
67442;SDS011;54311;51.726;5.154;2022-11-04T06:53:12;5.30;;;5.00;;
67442;SDS011;54311;51.726;5.154;2022-11-04T06:55:38;6.00;;;5.40;;
67442;SDS011;54311;51.726;5.154;2022-11-04T06:58:03;6.25;;;5.70;;
67442;SDS011;54311;51.726;5.154;2022-11-04T07:00:29;5.20;;;4.78;;
67442;SDS011;54311;51.726;5.154;2022-11-04T07:02:54;5.53;;;5.22;;
67442;SDS011;54311;51.726;5.154;2022-11-04T07:05:19;5.72;;;5.45;;
67442;SDS011;54311;51.726;5.154;2022-11-04T07:07:45;5.47;;;5.07;;
67442;SDS011;54311;51.726;5.154;2022-11-04T07:10:10;6.07;;;5.50;;
67442;SDS011;54311;51.726;5.154;2022-11-04T07:12:35;6.85;;;6.22;;
67442;SDS011;54311;51.726;5.154;2022-11-04T07:15:01;5.75;;;5.25;;
67442;SDS011;54311;51.726;5.154;2022-11-04T07:17:27;5.93;;;5.43;;
67442;SDS011;54311;51.726;5.154;2022-11-04T07:19:53;6.68;;;6.10;;
67442;SDS011;54311;51.726;5.154;2022-11-04T07:22:18;9.70;;;5.85;;
67442;SDS011;54311;51.726;5.154;2022-11-04T07:24:43;7.50;;;6.75;;
67442;SDS011;54311;51.726;5.154;2022-11-04T07:27:09;6.40;;;5.93;;
67442;SDS011;54311;51.726;5.154;2022-11-04T07:29:34;7.25;;;5.90;;
67442;SDS011;54311;51.726;5.154;2022-11-04T07:31:59;6.78;;;6.15;;
67442;SDS011;54311;51.726;5.154;2022-11-04T07:34:25;6.50;;;5.90;;
67442;SDS011;54311;51.726;5.154;2022-11-04T07:36:50;8.85;;;6.40;;
67442;SDS011;54311;51.726;5.154;2022-11-04T07:39:16;8.05;;;6.03;;
67442;SDS011;54311;51.726;5.154;2022-11-04T07:41:41;7.53;;;6.22;;
67442;SDS011;54311;51.726;5.154;2022-11-04T07:44:09;9.75;;;6.55;;
67442;SDS011;54311;51.726;5.154;2022-11-04T07:46:35;9.65;;;7.43;;
67442;SDS011;54311;51.726;5.154;2022-11-04T07:49:01;11.40;;;6.90;;
67442;SDS011;54311;51.726;5.154;2022-11-04T07:51:27;8.68;;;7.03;;
67442;SDS011;54311;51.726;5.154;2022-11-04T07:53:53;8.90;;;6.72;;
67442;SDS011;54311;51.726;5.154;2022-11-04T07:56:19;13.27;;;9.88;;
67442;SDS011;54311;51.726;5.154;2022-11-04T07:58:44;12.48;;;10.15;;
67442;SDS011;54311;51.726;5.154;2022-11-04T08:01:11;10.10;;;7.18;;
67442;SDS011;54311;51.726;5.154;2022-11-04T08:03:38;9.32;;;7.80;;
67442;SDS011;54311;51.726;5.154;2022-11-04T08:06:05;8.38;;;7.53;;
67442;SDS011;54311;51.726;5.154;2022-11-04T08:08:31;9.45;;;8.05;;
67442;SDS011;54311;51.726;5.154;2022-11-04T08:10:58;12.32;;;7.32;;
67442;SDS011;54311;51.726;5.154;2022-11-04T08:13:31;14.95;;;7.22;;
67442;SDS011;54311;51.726;5.154;2022-11-04T08:16:03;10.50;;;7.45;;
67442;SDS011;54311;51.726;5.154;2022-11-04T08:18:30;7.28;;;6.68;;
67442;SDS011;54311;51.726;5.154;2022-11-04T08:20:56;10.18;;;7.18;;
67442;SDS011;54311;51.726;5.154;2022-11-04T08:23:22;8.07;;;7.25;;
67442;SDS011;54311;51.726;5.154;2022-11-04T08:25:47;11.75;;;8.82;;
67442;SDS011;54311;51.726;5.154;2022-11-04T08:28:13;10.48;;;7.07;;
67442;SDS011;54311;51.726;5.154;2022-11-04T08:30:50;12.30;;;7.30;;
67442;SDS011;54311;51.726;5.154;2022-11-04T08:33:18;15.68;;;7.45;;
67442;SDS011;54311;51.726;5.154;2022-11-04T08:35:43;11.15;;;7.60;;
67442;SDS011;54311;51.726;5.154;2022-11-04T08:38:08;18.55;;;7.65;;
67442;SDS011;54311;51.726;5.154;2022-11-04T08:40:34;9.80;;;7.40;;
67442;SDS011;54311;51.726;5.154;2022-11-04T08:43:00;16.65;;;8.60;;
67442;SDS011;54311;51.726;5.154;2022-11-04T08:45:25;10.23;;;7.95;;
67442;SDS011;54311;51.726;5.154;2022-11-04T08:47:51;12.73;;;7.72;;
67442;SDS011;54311;51.726;5.154;2022-11-04T08:50:16;15.82;;;8.40;;
67442;SDS011;54311;51.726;5.154;2022-11-04T08:52:41;14.15;;;8.60;;
67442;SDS011;54311;51.726;5.154;2022-11-04T08:55:07;9.23;;;8.05;;
67442;SDS011;54311;51.726;5.154;2022-11-04T08:57:33;9.95;;;8.20;;
67442;SDS011;54311;51.726;5.154;2022-11-04T08:59:58;14.52;;;9.07;;
67442;SDS011;54311;51.726;5.154;2022-11-04T09:02:24;17.02;;;9.20;;
67442;SDS011;54311;51.726;5.154;2022-11-04T09:04:49;17.38;;;8.73;;
67442;SDS011;54311;51.726;5.154;2022-11-04T09:07:15;12.25;;;9.20;;
67442;SDS011;54311;51.726;5.154;2022-11-04T09:09:40;13.13;;;8.68;;
67442;SDS011;54311;51.726;5.154;2022-11-04T09:12:09;15.45;;;8.65;;
67442;SDS011;54311;51.726;5.154;2022-11-04T09:14:35;15.93;;;9.18;;
67442;SDS011;54311;51.726;5.154;2022-11-04T09:17:00;12.77;;;8.48;;
67442;SDS011;54311;51.726;5.154;2022-11-04T09:19:26;10.57;;;8.95;;
67442;SDS011;54311;51.726;5.154;2022-11-04T09:21:51;13.93;;;9.55;;
67442;SDS011;54311;51.726;5.154;2022-11-04T09:24:17;14.00;;;8.73;;
67442;SDS011;54311;51.726;5.154;2022-11-04T09:26:42;17.02;;;8.63;;
67442;SDS011;54311;51.726;5.154;2022-11-04T09:29:08;11.43;;;8.60;;
67442;SDS011;54311;51.726;5.154;2022-11-04T09:31:34;14.02;;;7.63;;
67442;SDS011;54311;51.726;5.154;2022-11-04T09:34:00;9.30;;;8.30;;
67442;SDS011;54311;51.726;5.154;2022-11-04T09:36:25;16.00;;;7.97;;
67442;SDS011;54311;51.726;5.154;2022-11-04T09:38:52;21.42;;;8.48;;
67442;SDS011;54311;51.726;5.154;2022-11-04T09:41:37;23.27;;;8.52;;
67442;SDS011;54311;51.726;5.154;2022-11-04T09:47:04;19.65;;;8.63;;
67442;SDS011;54311;51.726;5.154;2022-11-04T09:49:33;11.88;;;8.38;;
67442;SDS011;54311;51.726;5.154;2022-11-04T09:52:02;15.32;;;8.90;;
67442;SDS011;54311;51.726;5.154;2022-11-04T09:54:37;18.88;;;8.63;;
67442;SDS011;54311;51.726;5.154;2022-11-04T09:57:08;17.02;;;9.80;;
67442;SDS011;54311;51.726;5.154;2022-11-04T09:59:40;13.55;;;9.18;;
67442;SDS011;54311;51.726;5.154;2022-11-04T10:02:27;16.88;;;9.57;;
67442;SDS011;54311;51.726;5.154;2022-11-04T10:07:32;12.63;;;9.35;;
67442;SDS011;54311;51.726;5.154;2022-11-04T10:10:23;18.42;;;9.85;;
67442;SDS011;54311;51.726;5.154;2022-11-04T10:21:24;15.82;;;10.05;;
67442;SDS011;54311;51.726;5.154;2022-11-04T10:24:06;25.90;;;11.25;;
67442;SDS011;54311;51.726;5.154;2022-11-04T10:26:44;15.02;;;10.27;;
67442;SDS011;54311;51.726;5.154;2022-11-04T10:29:27;16.08;;;9.95;;
67442;SDS011;54311;51.726;5.154;2022-11-04T10:31:56;16.67;;;11.43;;
67442;SDS011;54311;51.726;5.154;2022-11-04T10:34:25;15.40;;;11.60;;
67442;SDS011;54311;51.726;5.154;2022-11-04T10:36:52;16.15;;;11.43;;
67442;SDS011;54311;51.726;5.154;2022-11-04T10:39:22;22.33;;;13.13;;
67442;SDS011;54311;51.726;5.154;2022-11-04T10:41:51;21.63;;;12.98;;
67442;SDS011;54311;51.726;5.154;2022-11-04T10:44:24;20.20;;;14.77;;
67442;SDS011;54311;51.726;5.154;2022-11-04T10:47:13;20.02;;;14.57;;
67442;SDS011;54311;51.726;5.154;2022-11-04T10:52:45;25.23;;;14.52;;
67442;SDS011;54311;51.726;5.154;2022-11-04T10:57:56;23.67;;;15.18;;
67442;SDS011;54311;51.726;5.154;2022-11-04T11:00:38;22.70;;;16.27;;
67442;SDS011;54311;51.726;5.154;2022-11-04T11:06:12;22.38;;;16.88;;
67442;SDS011;54311;51.726;5.154;2022-11-04T11:08:40;24.58;;;15.43;;
67442;SDS011;54311;51.726;5.154;2022-11-04T11:11:06;23.10;;;16.90;;
67442;SDS011;54311;51.726;5.154;2022-11-04T11:13:36;25.90;;;16.92;;
67442;SDS011;54311;51.726;5.154;2022-11-04T11:16:07;23.23;;;16.63;;
67442;SDS011;54311;51.726;5.154;2022-11-04T11:18:37;21.65;;;16.50;;
67442;SDS011;54311;51.726;5.154;2022-11-04T11:23:33;21.95;;;14.60;;
67442;SDS011;54311;51.726;5.154;2022-11-04T11:26:00;19.50;;;15.13;;
67442;SDS011;54311;51.726;5.154;2022-11-04T11:28:28;22.30;;;15.25;;
67442;SDS011;54311;51.726;5.154;2022-11-04T11:30:58;22.98;;;15.13;;
67442;SDS011;54311;51.726;5.154;2022-11-04T11:33:26;26.40;;;14.68;;
67442;SDS011;54311;51.726;5.154;2022-11-04T11:35:59;20.38;;;14.10;;
67442;SDS011;54311;51.726;5.154;2022-11-04T11:38:29;16.58;;;13.45;;
67442;SDS011;54311;51.726;5.154;2022-11-04T11:41:30;17.70;;;14.30;;
67442;SDS011;54311;51.726;5.154;2022-11-04T11:43:55;18.63;;;14.65;;
67442;SDS011;54311;51.726;5.154;2022-11-04T11:46:25;18.13;;;14.30;;
67442;SDS011;54311;51.726;5.154;2022-11-04T11:48:57;23.10;;;15.70;;
67442;SDS011;54311;51.726;5.154;2022-11-04T11:51:26;19.38;;;15.95;;
67442;SDS011;54311;51.726;5.154;2022-11-04T11:56:54;15.80;;;13.57;;
67442;SDS011;54311;51.726;5.154;2022-11-04T12:04:52;20.55;;;15.90;;
67442;SDS011;54311;51.726;5.154;2022-11-04T12:10:02;15.60;;;14.00;;
67442;SDS011;54311;51.726;5.154;2022-11-04T12:15:24;22.67;;;14.85;;
67442;SDS011;54311;51.726;5.154;2022-11-04T12:23:35;16.95;;;13.15;;
67442;SDS011;54311;51.726;5.154;2022-11-04T12:31:29;18.88;;;12.93;;
67442;SDS011;54311;51.726;5.154;2022-11-04T12:37:31;17.70;;;13.85;;
67442;SDS011;54311;51.726;5.154;2022-11-04T12:40:11;16.42;;;14.75;;
67442;SDS011;54311;51.726;5.154;2022-11-04T12:42:53;16.60;;;14.88;;
67442;SDS011;54311;51.726;5.154;2022-11-04T12:45:42;16.38;;;13.88;;
67442;SDS011;54311;51.726;5.154;2022-11-04T12:57:07;20.45;;;13.43;;
67442;SDS011;54311;51.726;5.154;2022-11-04T12:59:43;18.65;;;13.32;;
67442;SDS011;54311;51.726;5.154;2022-11-04T13:05:34;16.40;;;11.40;;
67442;SDS011;54311;51.726;5.154;2022-11-04T13:10:50;20.80;;;11.20;;
67442;SDS011;54311;51.726;5.154;2022-11-04T13:13:23;17.90;;;10.90;;
67442;SDS011;54311;51.726;5.154;2022-11-04T13:15:54;16.10;;;10.82;;
67442;SDS011;54311;51.726;5.154;2022-11-04T13:18:22;14.55;;;10.43;;
67442;SDS011;54311;51.726;5.154;2022-11-04T13:20:52;17.08;;;10.85;;
67442;SDS011;54311;51.726;5.154;2022-11-04T13:23:24;15.27;;;10.18;;
67442;SDS011;54311;51.726;5.154;2022-11-04T13:25:52;15.15;;;10.90;;
67442;SDS011;54311;51.726;5.154;2022-11-04T13:28:18;13.43;;;9.65;;
67442;SDS011;54311;51.726;5.154;2022-11-04T13:44:04;11.93;;;8.98;;
67442;SDS011;54311;51.726;5.154;2022-11-04T13:46:35;13.40;;;8.27;;
67442;SDS011;54311;51.726;5.154;2022-11-04T13:54:04;6.75;;;6.10;;
67442;SDS011;54311;51.726;5.154;2022-11-04T13:56:34;3.55;;;3.00;;
67442;SDS011;54311;51.726;5.154;2022-11-04T14:01:32;2.33;;;2.13;;
67442;SDS011;54311;51.726;5.154;2022-11-04T14:04:01;7.07;;;2.20;;
67442;SDS011;54311;51.726;5.154;2022-11-04T14:09:23;3.50;;;2.20;;
67442;SDS011;54311;51.726;5.154;2022-11-04T14:14:45;2.38;;;2.13;;
67442;SDS011;54311;51.726;5.154;2022-11-04T14:25:01;2.17;;;2.03;;
67442;SDS011;54311;51.726;5.154;2022-11-04T14:27:41;4.72;;;2.28;;
67442;SDS011;54311;51.726;5.154;2022-11-04T14:30:25;2.58;;;2.45;;
67442;SDS011;54311;51.726;5.154;2022-11-04T14:32:53;3.70;;;2.15;;
67442;SDS011;54311;51.726;5.154;2022-11-04T14:35:22;3.00;;;2.58;;
67442;SDS011;54311;51.726;5.154;2022-11-04T14:37:50;4.95;;;2.75;;
67442;SDS011;54311;51.726;5.154;2022-11-04T14:40:24;2.50;;;2.33;;
67442;SDS011;54311;51.726;5.154;2022-11-04T14:42:52;4.10;;;2.60;;
67442;SDS011;54311;51.726;5.154;2022-11-04T14:45:21;8.23;;;2.88;;
67442;SDS011;54311;51.726;5.154;2022-11-04T14:47:50;4.32;;;2.70;;
67442;SDS011;54311;51.726;5.154;2022-11-04T14:50:19;3.72;;;2.50;;
67442;SDS011;54311;51.726;5.154;2022-11-04T14:55:21;6.82;;;2.63;;
67442;SDS011;54311;51.726;5.154;2022-11-04T14:57:49;2.70;;;2.42;;
67442;SDS011;54311;51.726;5.154;2022-11-04T15:02:48;4.53;;;2.40;;
67442;SDS011;54311;51.726;5.154;2022-11-04T15:05:25;2.90;;;2.72;;
67442;SDS011;54311;51.726;5.154;2022-11-04T15:07:52;4.00;;;2.25;;
67442;SDS011;54311;51.726;5.154;2022-11-04T15:10:19;4.50;;;2.80;;
67442;SDS011;54311;51.726;5.154;2022-11-04T15:12:47;4.22;;;2.90;;
67442;SDS011;54311;51.726;5.154;2022-11-04T15:15:58;2.80;;;2.60;;
67442;SDS011;54311;51.726;5.154;2022-11-04T15:18:19;3.97;;;3.65;;
67442;SDS011;54311;51.726;5.154;2022-11-04T15:20:49;4.27;;;3.27;;
67442;SDS011;54311;51.726;5.154;2022-11-04T15:23:26;9.27;;;3.22;;
67442;SDS011;54311;51.726;5.154;2022-11-04T15:25:53;5.75;;;2.72;;
67442;SDS011;54311;51.726;5.154;2022-11-04T15:28:21;4.40;;;2.50;;
67442;SDS011;54311;51.726;5.154;2022-11-04T15:30:58;2.88;;;2.75;;
67442;SDS011;54311;51.726;5.154;2022-11-04T15:33:28;4.65;;;2.75;;
67442;SDS011;54311;51.726;5.154;2022-11-04T15:35:55;4.43;;;4.10;;
67442;SDS011;54311;51.726;5.154;2022-11-04T15:38:23;3.33;;;3.05;;
67442;SDS011;54311;51.726;5.154;2022-11-04T15:40:50;3.42;;;3.10;;
67442;SDS011;54311;51.726;5.154;2022-11-04T15:43:15;3.33;;;2.72;;
67442;SDS011;54311;51.726;5.154;2022-11-04T15:53:51;4.40;;;2.40;;
67442;SDS011;54311;51.726;5.154;2022-11-04T15:56:20;6.55;;;2.67;;
67442;SDS011;54311;51.726;5.154;2022-11-04T15:58:46;4.32;;;2.70;;
67442;SDS011;54311;51.726;5.154;2022-11-04T16:01:12;3.63;;;2.40;;
67442;SDS011;54311;51.726;5.154;2022-11-04T16:03:51;2.70;;;2.47;;
67442;SDS011;54311;51.726;5.154;2022-11-04T16:06:36;3.20;;;2.90;;
67442;SDS011;54311;51.726;5.154;2022-11-04T16:09:17;3.67;;;2.92;;
67442;SDS011;54311;51.726;5.154;2022-11-04T16:12:03;6.80;;;2.95;;
67442;SDS011;54311;51.726;5.154;2022-11-04T16:14:49;5.97;;;3.17;;
67442;SDS011;54311;51.726;5.154;2022-11-04T16:17:16;3.17;;;2.97;;
67442;SDS011;54311;51.726;5.154;2022-11-04T16:19:44;7.60;;;2.90;;
67442;SDS011;54311;51.726;5.154;2022-11-04T16:22:10;5.80;;;5.28;;
67442;SDS011;54311;51.726;5.154;2022-11-04T16:24:52;4.97;;;4.63;;
67442;SDS011;54311;51.726;5.154;2022-11-04T16:27:19;6.53;;;4.53;;
67442;SDS011;54311;51.726;5.154;2022-11-04T16:30:00;4.18;;;3.85;;
67442;SDS011;54311;51.726;5.154;2022-11-04T16:32:44;3.58;;;3.28;;
67442;SDS011;54311;51.726;5.154;2022-11-04T16:35:16;5.80;;;3.63;;
67442;SDS011;54311;51.726;5.154;2022-11-04T16:37:43;8.75;;;6.95;;
67442;SDS011;54311;51.726;5.154;2022-11-04T16:40:09;5.45;;;4.95;;
67442;SDS011;54311;51.726;5.154;2022-11-04T16:42:35;4.45;;;4.15;;
67442;SDS011;54311;51.726;5.154;2022-11-04T16:45:01;13.20;;;9.48;;
67442;SDS011;54311;51.726;5.154;2022-11-04T16:47:27;8.45;;;7.65;;
67442;SDS011;54311;51.726;5.154;2022-11-04T16:49:58;6.80;;;4.95;;
67442;SDS011;54311;51.726;5.154;2022-11-04T16:52:24;6.10;;;4.60;;
67442;SDS011;54311;51.726;5.154;2022-11-04T16:54:49;5.40;;;4.38;;
67442;SDS011;54311;51.726;5.154;2022-11-04T16:57:15;5.15;;;4.63;;
67442;SDS011;54311;51.726;5.154;2022-11-04T16:59:40;10.43;;;5.18;;
67442;SDS011;54311;51.726;5.154;2022-11-04T17:02:12;5.68;;;5.22;;
67442;SDS011;54311;51.726;5.154;2022-11-04T17:04:41;15.02;;;6.20;;
67442;SDS011;54311;51.726;5.154;2022-11-04T17:07:08;5.30;;;4.88;;
67442;SDS011;54311;51.726;5.154;2022-11-04T17:09:33;14.15;;;5.97;;
67442;SDS011;54311;51.726;5.154;2022-11-04T17:11:58;5.18;;;4.70;;
67442;SDS011;54311;51.726;5.154;2022-11-04T17:14:23;5.35;;;5.03;;
67442;SDS011;54311;51.726;5.154;2022-11-04T17:16:49;4.82;;;4.18;;
67442;SDS011;54311;51.726;5.154;2022-11-04T17:19:14;5.70;;;4.35;;
67442;SDS011;54311;51.726;5.154;2022-11-04T17:21:40;4.95;;;4.25;;
67442;SDS011;54311;51.726;5.154;2022-11-04T17:24:07;4.82;;;4.30;;
67442;SDS011;54311;51.726;5.154;2022-11-04T17:26:34;5.50;;;5.10;;
67442;SDS011;54311;51.726;5.154;2022-11-04T17:28:59;4.97;;;4.68;;
67442;SDS011;54311;51.726;5.154;2022-11-04T17:31:24;4.25;;;3.85;;